createdAt,value
2023-05-10T06:42:06.787Z,100728.44
2023-05-10T06:44:34.620Z,100726.00
2023-05-10T06:47:02.216Z,100725.34
2023-05-10T06:49:29.828Z,100717.59
2023-05-10T06:51:57.719Z,100710.94
2023-05-10T06:54:25.481Z,100719.00
2023-05-10T06:56:53.152Z,100721.00
2023-05-10T06:59:22.663Z,100721.41
2023-05-10T07:01:50.535Z,100714.06
2023-05-10T07:04:18.854Z,100715.22
2023-05-10T07:06:47.492Z,100714.00
2023-05-10T07:09:15.088Z,100704.88
2023-05-10T07:11:42.862Z,100706.28
2023-05-10T07:14:10.673Z,100715.31
2023-05-10T07:16:38.563Z,100707.59
2023-05-10T07:19:06.484Z,100698.13
2023-05-10T07:21:34.042Z,100702.69
2023-05-10T07:24:02.156Z,100691.56
2023-05-10T07:26:30.144Z,100689.94
2023-05-10T07:28:57.657Z,100691.97
2023-05-10T07:31:25.354Z,100690.50
2023-05-10T07:33:52.960Z,100687.22
2023-05-10T07:36:20.837Z,100689.06
2023-05-10T07:38:48.484Z,100675.19
2023-05-10T07:41:16.295Z,100678.00
2023-05-10T07:43:43.938Z,100679.94
2023-05-10T07:46:12.148Z,100681.75
2023-05-10T07:48:39.761Z,100686.19
2023-05-10T07:51:10.270Z,100685.47
2023-05-10T07:53:39.234Z,100671.66
2023-05-10T07:56:31.225Z,100676.94
2023-05-10T07:58:59.860Z,100670.75
2023-05-10T08:01:31.163Z,100661.75
2023-05-10T08:03:58.874Z,100658.88
2023-05-10T08:06:28.216Z,100655.69
2023-05-10T08:08:55.833Z,100657.94
2023-05-10T08:11:23.914Z,100660.13
2023-05-10T08:13:52.388Z,100656.47
2023-05-10T08:16:20.101Z,100653.59
2023-05-10T08:18:48.585Z,100659.66
2023-05-10T08:21:16.766Z,100655.81
2023-05-10T08:23:47.739Z,100642.22
2023-05-10T08:26:15.450Z,100633.22
2023-05-10T08:28:43.111Z,100638.59
2023-05-10T08:31:10.770Z,100628.66
2023-05-10T08:33:38.363Z,100638.09
2023-05-10T08:36:06.302Z,100639.81
2023-05-10T08:38:33.820Z,100627.75
2023-05-10T08:41:03.645Z,100632.63
2023-05-10T08:43:31.415Z,100624.38
2023-05-10T08:46:04.256Z,100629.00
2023-05-10T08:48:35.428Z,100627.22
2023-05-10T08:51:04.877Z,100627.38
2023-05-10T08:53:36.453Z,100625.50
2023-05-10T08:56:05.010Z,100619.59
2023-05-10T08:58:33.059Z,100623.16
2023-05-10T09:01:02.050Z,100615.31
2023-05-10T09:03:31.204Z,100605.84
2023-05-10T09:05:59.610Z,100601.41
2023-05-10T09:08:28.042Z,100594.66
2023-05-10T09:10:56.370Z,100594.94
2023-05-10T09:13:25.425Z,100593.34
2023-05-10T09:15:54.298Z,100588.41
2023-05-10T09:18:22.143Z,100587.31
2023-05-10T09:20:50.181Z,100587.38
2023-05-10T09:23:18.728Z,100588.66
2023-05-10T09:25:46.852Z,100585.50
2023-05-10T09:28:14.550Z,100580.84
2023-05-10T09:30:44.023Z,100575.00
2023-05-10T09:33:11.636Z,100582.63
2023-05-10T09:35:41.239Z,100578.66
2023-05-10T09:38:09.103Z,100575.03
2023-05-10T09:40:36.719Z,100573.31
2023-05-10T09:43:14.699Z,100578.28
2023-05-10T09:45:42.546Z,100570.69
2023-05-10T09:48:10.076Z,100579.94
2023-05-10T09:50:37.765Z,100571.88
2023-05-10T09:53:05.407Z,100567.75
2023-05-10T09:55:40.471Z,100574.03
2023-05-10T09:58:11.361Z,100562.06
2023-05-10T10:00:44.160Z,100563.53
2023-05-10T10:03:16.795Z,100555.00
2023-05-10T10:05:45.701Z,100549.91
2023-05-10T10:08:14.087Z,100548.69
2023-05-10T10:10:42.468Z,100550.09
2023-05-10T10:13:10.237Z,100540.63
2023-05-10T10:15:38.266Z,100542.38
2023-05-10T10:18:06.657Z,100544.63
2023-05-10T10:20:34.316Z,100542.84
2023-05-10T10:23:02.093Z,100539.63
2023-05-10T10:25:30.001Z,100539.75
2023-05-10T10:28:11.326Z,100538.00
2023-05-10T10:30:47.013Z,100534.66
2023-05-10T10:33:42.190Z,100529.25
2023-05-10T10:36:09.991Z,100524.59
2023-05-10T10:38:49.690Z,100526.63
2023-05-10T10:41:35.539Z,100522.72
2023-05-10T10:44:21.992Z,100528.22
2023-05-10T10:47:07.193Z,100525.22
2023-05-10T10:49:44.705Z,100528.63
2023-05-10T10:52:15.430Z,100524.00
2023-05-10T10:54:51.521Z,100527.22
2023-05-10T10:57:22.716Z,100514.56
2023-05-10T10:59:50.560Z,100521.91
2023-05-10T11:02:50.002Z,100526.47
2023-05-10T11:05:29.770Z,100517.97
2023-05-10T11:07:59.492Z,100518.00
2023-05-10T11:10:28.598Z,100514.53
2023-05-10T11:13:09.599Z,100517.16
2023-05-10T11:15:39.261Z,100502.22
2023-05-10T11:18:21.240Z,100511.81
2023-05-10T11:21:04.354Z,100504.81
2023-05-10T11:23:33.979Z,100507.47
2023-05-10T11:26:05.923Z,100501.41
2023-05-10T11:28:33.622Z,100501.44
2023-05-10T11:31:01.361Z,100500.59
2023-05-10T11:33:29.298Z,100492.72
2023-05-10T11:35:56.989Z,100479.63
2023-05-10T11:38:24.443Z,100483.13
2023-05-10T11:40:54.420Z,100490.97
2023-05-10T11:43:24.989Z,100484.84
2023-05-10T11:45:52.660Z,100483.06
2023-05-10T11:48:23.541Z,100482.13
2023-05-10T11:50:51.610Z,100489.06
2023-05-10T11:53:21.602Z,100483.72
2023-05-10T11:55:49.717Z,100481.00
2023-05-10T11:58:19.135Z,100484.34
2023-05-10T12:00:47.688Z,100474.63
2023-05-10T12:03:15.491Z,100469.38
2023-05-10T12:05:43.299Z,100470.13
2023-05-10T12:08:21.398Z,100472.78
2023-05-10T12:10:49.029Z,100460.50
2023-05-10T12:13:16.815Z,100463.09
2023-05-10T12:15:44.812Z,100462.19
2023-05-10T12:18:16.386Z,100463.97
2023-05-10T12:20:44.066Z,100466.69
2023-05-10T12:23:14.359Z,100460.78
2023-05-10T12:25:41.943Z,100460.88
2023-05-10T12:28:10.729Z,100458.31
2023-05-10T12:30:39.827Z,100450.59
2023-05-10T12:33:13.095Z,100445.38
2023-05-10T12:35:49.033Z,100449.84
2023-05-10T12:38:49.130Z,100446.34
2023-05-10T12:41:18.824Z,100445.31
2023-05-10T12:43:47.561Z,100447.00
2023-05-10T12:46:19.644Z,100445.13
2023-05-10T12:48:53.229Z,100454.66
2023-05-10T12:51:25.142Z,100452.88
2023-05-10T12:53:52.898Z,100449.19
2023-05-10T12:56:21.161Z,100446.41
2023-05-10T12:58:49.332Z,100446.25
2023-05-10T13:01:17.002Z,100449.53
2023-05-10T13:03:44.926Z,100450.97
2023-05-10T13:06:14.469Z,100450.00
2023-05-10T13:08:42.046Z,100443.81
2023-05-10T13:11:09.643Z,100442.72
2023-05-10T13:13:37.156Z,100437.28
2023-05-10T13:16:05.000Z,100431.09
2023-05-10T13:18:32.573Z,100436.13
2023-05-10T13:21:00.369Z,100443.00
2023-05-10T13:23:27.913Z,100437.69
2023-05-10T13:25:55.728Z,100443.69
2023-05-10T13:28:23.248Z,100440.22
2023-05-10T13:30:50.985Z,100439.34
2023-05-10T13:33:18.542Z,100433.34
2023-05-10T13:35:46.331Z,100432.53
2023-05-10T13:38:14.913Z,100434.41
2023-05-10T13:40:42.479Z,100423.97
2023-05-10T13:43:10.131Z,100428.34
2023-05-10T13:45:37.912Z,100425.81
2023-05-10T13:48:05.703Z,100425.84
2023-05-10T13:50:33.342Z,100421.47
2023-05-10T13:53:01.320Z,100417.13
2023-05-10T13:55:29.790Z,100417.84
2023-05-10T13:57:57.495Z,100426.53
2023-05-10T14:00:25.103Z,100424.69
2023-05-10T14:02:52.823Z,100426.44
2023-05-10T14:05:25.533Z,100417.66
2023-05-10T14:07:54.797Z,100425.44
2023-05-10T14:10:22.586Z,100421.97
2023-05-10T14:12:51.059Z,100421.03
2023-05-10T14:15:19.309Z,100421.88
2023-05-10T14:17:47.214Z,100413.97
2023-05-10T14:20:14.735Z,100409.56
2023-05-10T14:22:42.493Z,100413.00
2023-05-10T14:25:10.321Z,100417.34
2023-05-10T14:27:38.154Z,100416.53
2023-05-10T14:30:06.360Z,100409.53
2023-05-10T14:32:35.052Z,100419.91
2023-05-10T14:35:02.628Z,100411.13
2023-05-10T14:37:32.168Z,100407.50
2023-05-10T14:39:59.823Z,100410.00
2023-05-10T14:42:27.283Z,100408.16
2023-05-10T14:44:54.871Z,100402.88
2023-05-10T14:47:22.375Z,100407.16
2023-05-10T14:49:50.040Z,100412.25
2023-05-10T14:52:17.947Z,100408.75
2023-05-10T14:54:45.474Z,100393.09
2023-05-10T14:57:13.128Z,100402.59
2023-05-10T14:59:40.698Z,100397.38
2023-05-10T15:02:09.414Z,100388.53
2023-05-10T15:04:38.071Z,100399.72
2023-05-10T15:07:06.835Z,100391.78
2023-05-10T15:09:34.362Z,100402.19
2023-05-10T15:12:02.046Z,100402.13
2023-05-10T15:14:29.929Z,100393.34
2023-05-10T15:16:57.454Z,100397.69
2023-05-10T15:19:25.029Z,100398.50
2023-05-10T15:21:52.590Z,100391.44
2023-05-10T15:24:20.313Z,100400.94
2023-05-10T15:26:48.201Z,100401.66
2023-05-10T15:29:20.757Z,100392.94
2023-05-10T15:31:49.675Z,100405.84
2023-05-10T15:34:18.395Z,100401.44
2023-05-10T15:36:46.425Z,100397.06
2023-05-10T15:39:14.765Z,100397.78
2023-05-10T15:41:42.749Z,100394.31
2023-05-10T15:44:10.235Z,100399.44
2023-05-10T15:46:38.990Z,100396.78
2023-05-10T15:49:07.610Z,100397.53
2023-05-10T15:51:36.629Z,100396.63
2023-05-10T15:54:08.223Z,100396.47
2023-05-10T15:56:36.551Z,100392.91
2023-05-10T15:59:04.178Z,100386.78
2023-05-10T16:01:32.855Z,100380.69
2023-05-10T16:04:01.236Z,100386.59
2023-05-10T16:06:28.945Z,100395.31
2023-05-10T16:08:56.523Z,100389.94
2023-05-10T16:11:24.410Z,100389.91
2023-05-10T16:13:52.868Z,100392.38
2023-05-10T16:16:20.506Z,100393.16
2023-05-10T16:18:49.005Z,100382.66
2023-05-10T16:21:16.932Z,100390.41
2023-05-10T16:23:46.755Z,100394.59
2023-05-10T16:26:14.417Z,100389.28
2023-05-10T16:28:41.978Z,100383.09
2023-05-10T16:31:09.663Z,100390.88
2023-05-10T16:33:37.499Z,100395.09
2023-05-10T16:36:06.207Z,100393.31
2023-05-10T16:38:33.858Z,100392.34
2023-05-10T16:41:04.563Z,100395.75
2023-05-10T16:43:32.916Z,100394.81
2023-05-10T16:46:00.918Z,100376.50
2023-05-10T16:48:28.623Z,100386.09
2023-05-10T16:50:56.274Z,100389.53
2023-05-10T16:53:23.811Z,100393.84
2023-05-10T16:55:51.605Z,100393.75
2023-05-10T16:58:19.311Z,100395.47
2023-05-10T17:00:47.112Z,100384.03
2023-05-10T17:03:15.023Z,100399.69
2023-05-10T17:05:43.310Z,100398.72
2023-05-10T17:08:11.012Z,100392.47
2023-05-10T17:10:41.649Z,100391.72
2023-05-10T17:13:10.397Z,100398.53
2023-05-10T17:15:39.672Z,100403.72
2023-05-10T17:18:07.920Z,100399.31
2023-05-10T17:20:35.995Z,100403.59
2023-05-10T17:23:03.853Z,100401.75
2023-05-10T17:25:31.568Z,100398.16
2023-05-10T17:27:59.142Z,100406.84
2023-05-10T17:30:28.831Z,100411.97
2023-05-10T17:32:56.451Z,100405.84
2023-05-10T17:35:24.222Z,100411.03
2023-05-10T17:37:52.013Z,100406.66
2023-05-10T17:40:19.857Z,100413.66
2023-05-10T17:42:49.103Z,100420.50
2023-05-10T17:45:17.653Z,100426.53
2023-05-10T17:47:45.755Z,100419.63
2023-05-10T17:50:13.401Z,100419.50
2023-05-10T17:52:40.936Z,100420.31
2023-05-10T17:55:09.136Z,100425.56
2023-05-10T17:57:38.892Z,100419.41
2023-05-10T18:00:08.882Z,100426.28
2023-05-10T18:02:37.027Z,100426.41
2023-05-10T18:05:05.602Z,100427.19
2023-05-10T18:07:33.541Z,100422.88
2023-05-10T18:10:01.272Z,100424.56
2023-05-10T18:12:29.674Z,100426.31
2023-05-10T18:14:57.800Z,100430.59
2023-05-10T18:17:26.337Z,100426.19
2023-05-10T18:19:53.988Z,100435.66
2023-05-10T18:22:21.758Z,100432.19
2023-05-10T18:24:49.323Z,100424.25
2023-05-10T18:27:17.274Z,100430.31
2023-05-10T18:29:45.228Z,100440.59
2023-05-10T18:32:12.875Z,100427.38
2023-05-10T18:34:40.729Z,100430.88
2023-05-10T18:37:09.693Z,100427.44
2023-05-10T18:39:37.763Z,100428.25
2023-05-10T18:42:06.065Z,100422.06
2023-05-10T18:44:34.004Z,100420.47
2023-05-10T18:47:01.608Z,100418.56
2023-05-10T18:49:29.501Z,100421.94
2023-05-10T18:51:57.282Z,100416.75
2023-05-10T18:54:25.307Z,100422.78
2023-05-10T18:56:52.980Z,100421.88
2023-05-10T18:59:20.670Z,100421.81
2023-05-10T19:01:50.878Z,100423.53
2023-05-10T19:04:19.037Z,100428.75
2023-05-10T19:06:46.783Z,100420.81
2023-05-10T19:09:14.464Z,100422.56
2023-05-10T19:11:43.439Z,100424.28
2023-05-10T19:14:11.233Z,100430.28
2023-05-10T19:16:40.515Z,100425.91
2023-05-10T19:19:09.061Z,100418.84
2023-05-10T19:21:38.080Z,100416.31
2023-05-10T19:24:06.602Z,100422.44
2023-05-10T19:26:34.361Z,100427.69
2023-05-10T19:29:02.193Z,100426.78
2023-05-10T19:31:30.153Z,100424.25
2023-05-10T19:34:00.628Z,100431.13
2023-05-10T19:36:28.906Z,100419.94
2023-05-10T19:38:56.928Z,100429.44
2023-05-10T19:41:24.691Z,100427.69
2023-05-10T19:43:52.357Z,100418.91
2023-05-10T19:46:20.415Z,100419.88
2023-05-10T19:48:50.118Z,100422.44
2023-05-10T19:51:18.577Z,100424.16
2023-05-10T19:53:47.074Z,100427.47
2023-05-10T19:56:14.948Z,100426.53
2023-05-10T19:58:42.775Z,100426.47
2023-05-10T20:01:10.717Z,100426.44
2023-05-10T20:03:38.694Z,100426.31
2023-05-10T20:06:06.430Z,100434.06
2023-05-10T20:08:34.087Z,100436.47
2023-05-10T20:11:03.882Z,100426.94
2023-05-10T20:13:31.924Z,100420.63
2023-05-10T20:16:00.072Z,100419.66
2023-05-10T20:18:27.910Z,100425.63
2023-05-10T20:20:57.972Z,100421.94
2023-05-10T20:23:26.044Z,100423.59
2023-05-10T20:25:54.894Z,100416.53
2023-05-10T20:28:24.060Z,100426.94
2023-05-10T20:30:54.400Z,100425.19
2023-05-10T20:33:22.950Z,100428.63
2023-05-10T20:35:51.436Z,100427.75
2023-05-10T20:38:19.445Z,100426.78
2023-05-10T20:40:47.433Z,100435.53
2023-05-10T20:43:15.170Z,100430.28
2023-05-10T20:45:42.894Z,100428.50
2023-05-10T20:48:10.499Z,100425.81
2023-05-10T20:50:38.227Z,100427.41
2023-05-10T20:53:06.188Z,100423.09
2023-05-10T20:55:33.881Z,100423.00
2023-05-10T20:58:04.140Z,100426.44
2023-05-10T21:00:32.623Z,100430.69
2023-05-10T21:03:00.242Z,100430.59
2023-05-10T21:05:27.992Z,100432.44
2023-05-10T21:07:55.679Z,100421.06
2023-05-10T21:10:23.331Z,100424.69
2023-05-10T21:12:51.070Z,100425.50
2023-05-10T21:15:18.735Z,100428.19
2023-05-10T21:17:46.344Z,100417.75
2023-05-10T21:20:13.959Z,100419.50
2023-05-10T21:22:41.607Z,100428.09
2023-05-10T21:25:09.805Z,100429.72
2023-05-10T21:27:37.560Z,100423.59
2023-05-10T21:30:06.459Z,100418.19
2023-05-10T21:32:34.349Z,100418.19
2023-05-10T21:35:02.217Z,100425.84
2023-05-10T21:37:31.949Z,100418.81
2023-05-10T21:39:59.545Z,100424.78
2023-05-10T21:42:27.277Z,100425.53
2023-05-10T21:44:54.942Z,100436.66
2023-05-10T21:47:22.668Z,100428.75
2023-05-10T21:49:50.670Z,100430.41
2023-05-10T21:52:18.450Z,100436.47
2023-05-10T21:54:46.152Z,100428.66
2023-05-10T21:57:13.703Z,100424.22
2023-05-10T21:59:41.278Z,100426.91
2023-05-10T22:02:09.097Z,100429.50
2023-05-10T22:04:36.690Z,100430.34
2023-05-10T22:07:04.388Z,100433.75
2023-05-10T22:09:32.052Z,100436.25
2023-05-10T22:11:59.675Z,100435.38
2023-05-10T22:14:27.177Z,100436.13
2023-05-10T22:16:54.975Z,100436.75
2023-05-10T22:19:22.560Z,100439.28
2023-05-10T22:21:50.152Z,100431.47
2023-05-10T22:24:17.776Z,100427.97
2023-05-10T22:26:45.517Z,100437.63
2023-05-10T22:29:13.208Z,100426.28
2023-05-10T22:31:41.246Z,100411.28
2023-05-10T22:34:08.973Z,100434.78
2023-05-10T22:36:37.375Z,100431.31
2023-05-10T22:39:05.134Z,100429.41
2023-05-10T22:41:36.019Z,100428.69
2023-05-10T22:44:05.136Z,100428.56
2023-05-10T22:46:33.121Z,100433.69
2023-05-10T22:49:00.805Z,100433.53
2023-05-10T22:51:28.649Z,100436.13
2023-05-10T22:53:56.227Z,100432.56
2023-05-10T22:56:23.813Z,100436.03
2023-05-10T22:58:51.460Z,100441.13
2023-05-10T23:01:19.175Z,100447.88
2023-05-10T23:03:46.673Z,100428.66
2023-05-10T23:06:14.467Z,100445.03
2023-05-10T23:08:41.936Z,100439.72
2023-05-10T23:11:09.625Z,100444.06
2023-05-10T23:13:37.237Z,100437.97
2023-05-10T23:16:06.616Z,100438.78
2023-05-10T23:18:34.293Z,100446.69
2023-05-10T23:21:01.998Z,100443.28
2023-05-10T23:23:29.653Z,100443.19
2023-05-10T23:25:57.262Z,100447.56
2023-05-10T23:28:24.901Z,100437.16
2023-05-10T23:30:56.775Z,100440.56
2023-05-10T23:33:25.216Z,100448.22
2023-05-10T23:35:54.212Z,100441.22
2023-05-10T23:38:21.973Z,100447.22
2023-05-10T23:40:50.874Z,100453.06
2023-05-10T23:43:19.863Z,100446.97
2023-05-10T23:45:55.220Z,100449.63
2023-05-10T23:48:23.311Z,100458.00
2023-05-10T23:50:51.312Z,100449.19
2023-05-10T23:53:19.109Z,100444.81
2023-05-10T23:55:46.898Z,100451.78
2023-05-10T23:58:14.543Z,100449.09
